Time;durP1;ratioP1;P1;durP2;ratioP2;P2;SDS_P1;SDS_P2;PMS_P1;PMS_P2;Temp;Humidity;BMP_temperature;BMP_pressure;BME280_temperature;BME280_humidity;BME280_pressure;Samples;Min_cycle;Max_cycle;Signal;HPM_P1;HPM_P2
2021/08/07 00:00:12;;;;;;;;;;;;;;;25.31;68.25;100099.91;4990701;28;1280;-61
2021/08/07 00:02:39;;;;;;;;;;;;;;;25.36;67.64;100096.78;4990722;28;1203;-59
2021/08/07 00:05:07;;;;;;;;;;;;;;;25.26;68.53;100102.16;4973496;28;1272;-61
2021/08/07 00:07:34;;;;;;;;;;;;;;;25.14;69.25;100102.47;4991004;28;870;-61
2021/08/07 00:10:01;;;;;;;;;;;;;;;25.26;67.95;100096.81;4991017;28;1249;-62
2021/08/07 00:12:28;;;;;;;;;;;;;;;25.24;68.50;100090.78;4990913;28;1930;-62
2021/08/07 00:14:55;;;;;;;;;;;;;;;25.25;68.09;100080.97;4990858;28;1336;-62
2021/08/07 00:17:21;;;;;;;;;;;;;;;25.23;67.79;100075.78;4990620;28;807;-62
2021/08/07 00:19:48;;;;;;;;;;;;;;;25.19;68.19;100069.06;4971439;28;2016;-60
2021/08/07 00:22:15;;;;;;;;;;;;;;;25.19;67.09;100073.56;4969267;28;1597;-60
2021/08/07 00:24:42;;;;;;;;;;;;;;;25.23;68.32;100069.63;4959684;28;1265;-60
2021/08/07 00:27:08;;;;;;;;;;;;;;;25.17;67.17;100064.88;4969292;28;1164;-60
2021/08/07 00:29:35;;;;;;;;;;;;;;;25.29;68.44;100056.53;4969189;28;1319;-60
2021/08/07 00:32:02;;;;;;;;;;;;;;;25.30;65.87;100050.22;4969940;28;1140;-60
2021/08/07 00:34:29;;;;;;;;;;;;;;;25.29;66.80;100058.38;4962569;28;1915;-61
2021/08/07 00:36:56;;;;;;;;;;;;;;;25.26;68.37;100048.03;4951954;28;1022;-62
2021/08/07 00:39:22;;;;;;;;;;;;;;;25.22;66.86;100052.78;4963113;28;1095;-62
2021/08/07 00:41:50;;;;;;;;;;;;;;;25.23;67.85;100054.44;4970853;28;1293;-62
2021/08/07 00:44:16;;;;;;;;;;;;;;;25.22;68.56;100050.13;4971407;28;917;-61
2021/08/07 00:46:43;;;;;;;;;;;;;;;25.23;68.63;100046.47;4971397;28;1304;-61
2021/08/07 00:49:10;;;;;;;;;;;;;;;25.13;68.42;100050.16;4971332;28;1138;-61
2021/08/07 00:51:36;;;;;;;;;;;;;;;25.17;68.41;100040.91;4970897;28;1221;-61
2021/08/07 00:54:03;;;;;;;;;;;;;;;25.13;68.32;100037.69;4970913;28;1910;-62
2021/08/07 00:56:29;;;;;;;;;;;;;;;25.13;67.17;100031.50;4970614;28;1222;-61
2021/08/07 00:58:56;;;;;;;;;;;;;;;25.16;68.87;100032.06;4970897;28;846;-61
2021/08/07 01:01:25;;;;;;;;;;;;;;;25.04;67.38;100029.72;4970770;28;1242;-61
2021/08/07 01:03:54;;;;;;;;;;;;;;;25.07;67.90;100021.41;4970651;28;1097;-61
2021/08/07 01:06:28;;;;;;;;;;;;;;;25.20;67.32;100025.44;4965577;28;1925;-62
2021/08/07 01:09:01;;;;;;;;;;;;;;;25.08;68.34;100023.94;4956732;28;1093;-62
2021/08/07 01:11:34;;;;;;;;;;;;;;;25.09;68.74;100024.78;4955468;28;1427;-62
2021/08/07 01:14:04;;;;;;;;;;;;;;;25.08;68.76;100015.94;4970229;28;1910;-62
2021/08/07 01:16:32;;;;;;;;;;;;;;;25.07;69.10;100016.09;4970058;28;1254;-63
2021/08/07 01:18:59;;;;;;;;;;;;;;;25.17;68.56;100022.25;4960565;28;1126;-62
2021/08/07 01:21:29;;;;;;;;;;;;;;;25.05;69.26;100015.41;4951130;28;1219;-61
2021/08/07 01:23:56;;;;;;;;;;;;;;;25.15;68.74;100008.19;4951177;29;900;-62
2021/08/07 01:26:36;;;;;;;;;;;;;;;25.13;67.32;100008.34;4951121;29;1178;-62
2021/08/07 01:29:03;;;;;;;;;;;;;;;25.02;69.22;100004.03;4950967;29;1063;-62
2021/08/07 01:31:31;;;;;;;;;;;;;;;25.07;68.88;99998.28;4950605;28;1235;-62
2021/08/07 01:33:58;;;;;;;;;;;;;;;25.05;68.74;99986.09;4950528;29;1910;-62
2021/08/07 01:36:25;;;;;;;;;;;;;;;25.02;68.66;99982.72;4950693;28;1344;-62
2021/08/07 01:38:52;;;;;;;;;;;;;;;25.04;68.13;99981.75;4950990;29;802;-62
2021/08/07 01:41:20;;;;;;;;;;;;;;;24.98;68.96;99981.34;4949719;28;1359;-62
2021/08/07 01:43:47;;;;;;;;;;;;;;;24.90;68.78;99975.03;4950887;28;1096;-62
2021/08/07 01:46:15;;;;;;;;;;;;;;;25.00;68.87;99978.53;4951129;29;1309;-62
2021/08/07 01:48:42;;;;;;;;;;;;;;;25.05;67.71;99970.94;4950806;29;1098;-61
2021/08/07 01:51:13;;;;;;;;;;;;;;;25.02;67.97;99970.41;4950367;28;1360;-61
2021/08/07 01:53:41;;;;;;;;;;;;;;;24.93;68.94;99972.09;4950584;28;1914;-61
2021/08/07 01:56:19;;;;;;;;;;;;;;;25.03;67.68;99964.91;4950808;28;1255;-61
2021/08/07 01:58:48;;;;;;;;;;;;;;;24.99;68.19;99966.19;4950295;29;878;-61
2021/08/07 02:01:16;;;;;;;;;;;;;;;25.05;67.39;99970.13;4950575;28;1278;-62
2021/08/07 02:03:44;;;;;;;;;;;;;;;25.01;68.92;99969.56;4950406;29;843;-60
2021/08/07 02:06:12;;;;;;;;;;;;;;;24.96;67.95;99966.47;4950299;29;1269;-62
2021/08/07 02:08:40;;;;;;;;;;;;;;;24.91;69.01;99964.25;4933007;29;1080;-61
2021/08/07 02:11:07;;;;;;;;;;;;;;;24.95;68.63;99959.50;4949812;28;1273;-61
2021/08/07 02:13:34;;;;;;;;;;;;;;;24.98;68.26;99959.19;4950276;29;1914;-62
2021/08/07 02:16:00;;;;;;;;;;;;;;;24.93;69.03;99956.09;4950276;28;1278;-62
2021/08/07 02:18:27;;;;;;;;;;;;;;;25.02;67.76;99947.25;4933098;29;1190;-62
2021/08/07 02:20:55;;;;;;;;;;;;;;;25.02;68.32;99949.91;4950502;29;1344;-62
2021/08/07 02:23:22;;;;;;;;;;;;;;;25.00;68.40;99949.22;4950437;28;1148;-62
2021/08/07 02:25:52;;;;;;;;;;;;;;;24.93;68.78;99946.28;4950640;29;1245;-62
2021/08/07 02:28:20;;;;;;;;;;;;;;;24.95;67.70;99944.34;4949594;29;1053;-62
2021/08/07 02:30:47;;;;;;;;;;;;;;;25.00;68.57;99939.41;4950631;28;1348;-63
2021/08/07 02:33:15;;;;;;;;;;;;;;;24.95;68.53;99938.19;4950165;29;1971;-63
2021/08/07 02:35:42;;;;;;;;;;;;;;;25.01;68.86;99945.59;4932937;29;1364;-62
2021/08/07 02:38:08;;;;;;;;;;;;;;;25.01;68.05;99940.25;4950082;28;989;-62
2021/08/07 02:40:35;;;;;;;;;;;;;;;25.01;66.78;99937.59;4949914;29;1355;-62
2021/08/07 02:43:02;;;;;;;;;;;;;;;25.08;68.08;99938.66;4950024;29;915;-62
2021/08/07 02:45:29;;;;;;;;;;;;;;;24.95;68.76;99924.84;4950195;28;1265;-62
2021/08/07 02:47:56;;;;;;;;;;;;;;;25.05;67.55;99922.97;4950261;29;799;-62
2021/08/07 02:50:23;;;;;;;;;;;;;;;24.99;67.76;99920.88;4950269;28;1324;-62
2021/08/07 02:52:50;;;;;;;;;;;;;;;24.92;68.29;99918.00;4951299;28;1085;-63
2021/08/07 02:55:16;;;;;;;;;;;;;;;24.86;68.91;99915.06;4953435;28;1934;-62
2021/08/07 02:57:43;;;;;;;;;;;;;;;24.94;68.23;99916.00;4953457;28;1065;-62
2021/08/07 03:00:11;;;;;;;;;;;;;;;25.03;67.92;99911.63;4953119;28;1329;-62
2021/08/07 03:02:39;;;;;;;;;;;;;;;25.04;67.47;99907.97;4953152;29;1483;-62
2021/08/07 03:05:06;;;;;;;;;;;;;;;24.92;68.85;99906.50;4953750;29;1272;-63
2021/08/07 03:07:33;;;;;;;;;;;;;;;24.94;68.47;99915.16;4953303;28;705;-62
2021/08/07 03:09:59;;;;;;;;;;;;;;;24.95;68.25;99915.03;4953392;29;1372;-62
2021/08/07 03:12:26;;;;;;;;;;;;;;;24.99;67.48;99908.41;4953403;28;1608;-63
2021/08/07 03:14:53;;;;;;;;;;;;;;;24.88;68.33;99913.09;4953280;28;1991;-63
2021/08/07 03:17:20;;;;;;;;;;;;;;;24.91;68.82;99915.47;4952551;28;1179;-63
2021/08/07 03:19:46;;;;;;;;;;;;;;;24.92;68.80;99909.16;4953227;29;1265;-63
2021/08/07 03:22:13;;;;;;;;;;;;;;;24.79;68.88;99905.94;4953510;28;890;-62
2021/08/07 03:24:40;;;;;;;;;;;;;;;24.87;68.97;99908.75;4953118;29;1403;-62
2021/08/07 03:27:06;;;;;;;;;;;;;;;24.89;69.27;99902.31;4953333;28;779;-62
2021/08/07 03:29:33;;;;;;;;;;;;;;;24.91;69.00;99907.47;4953285;29;1375;-63
2021/08/07 03:32:00;;;;;;;;;;;;;;;24.86;69.32;99901.75;4953208;29;1029;-63
2021/08/07 03:34:26;;;;;;;;;;;;;;;24.73;69.32;99898.53;4952871;29;1986;-63
2021/08/07 03:36:53;;;;;;;;;;;;;;;24.80;69.62;99896.97;4952922;29;1238;-62
2021/08/07 03:39:20;;;;;;;;;;;;;;;24.86;68.07;99901.75;4953078;29;1024;-62
2021/08/07 03:41:48;;;;;;;;;;;;;;;24.91;67.28;99895.00;4953309;29;1222;-62
2021/08/07 03:44:15;;;;;;;;;;;;;;;24.91;68.67;99894.16;4952913;28;1265;-62
2021/08/07 03:46:42;;;;;;;;;;;;;;;24.88;67.42;99889.97;4952899;29;1265;-63
2021/08/07 03:49:08;;;;;;;;;;;;;;;24.91;68.45;99886.16;4952678;28;1050;-62
2021/08/07 03:51:35;;;;;;;;;;;;;;;24.83;70.05;99886.06;4953347;29;1299;-64
2021/08/07 03:54:02;;;;;;;;;;;;;;;24.86;69.95;99885.78;4955117;28;1914;-67
2021/08/07 03:56:29;;;;;;;;;;;;;;;24.87;69.83;99882.09;4968390;28;1400;-62
2021/08/07 03:58:55;;;;;;;;;;;;;;;24.92;69.58;99886.03;4971597;28;1085;-62
2021/08/07 04:01:23;;;;;;;;;;;;;;;24.82;70.12;99877.22;4972140;28;1285;-62
2021/08/07 04:03:50;;;;;;;;;;;;;;;24.81;69.77;99882.69;4970658;28;908;-63
2021/08/07 04:06:26;;;;;;;;;;;;;;;24.83;69.98;99878.91;4971313;28;1297;-62
2021/08/07 04:08:53;;;;;;;;;;;;;;;24.82;69.59;99873.72;4970364;28;1543;-64
2021/08/07 04:11:20;;;;;;;;;;;;;;;24.95;69.42;99874.22;4965381;28;1278;-63
2021/08/07 04:13:46;;;;;;;;;;;;;;;24.96;69.37;99870.56;4969910;28;1922;-64
2021/08/07 04:16:13;;;;;;;;;;;;;;;24.82;69.79;99863.91;4951425;28;1200;-63
2021/08/07 04:18:40;;;;;;;;;;;;;;;24.80;69.90;99867.69;4952575;28;1073;-63
2021/08/07 04:21:06;;;;;;;;;;;;;;;24.79;69.56;99863.34;4952262;29;1277;-63
2021/08/07 04:23:33;;;;;;;;;;;;;;;24.90;68.21;99869.34;4964769;28;938;-67
2021/08/07 04:26:00;;;;;;;;;;;;;;;24.92;69.13;99870.03;4971724;28;1261;-64
2021/08/07 04:28:26;;;;;;;;;;;;;;;24.90;69.20;99871.16;4967213;28;840;-66
2021/08/07 04:30:53;;;;;;;;;;;;;;;24.77;69.73;99865.31;4953765;28;1233;-66
2021/08/07 04:33:20;;;;;;;;;;;;;;;24.98;68.78;99868.59;4970644;28;1204;-64
2021/08/07 04:35:47;;;;;;;;;;;;;;;25.08;68.59;99868.56;4974555;28;1904;-65
2021/08/07 04:38:13;;;;;;;;;;;;;;;25.10;68.85;99862.09;4980201;28;1381;-63
2021/08/07 04:40:40;;;;;;;;;;;;;;;25.14;68.26;99867.97;4980238;28;1373;-64
2021/08/07 04:43:07;;;;;;;;;;;;;;;25.16;68.42;99861.50;4978376;28;1342;-65
2021/08/07 04:45:33;;;;;;;;;;;;;;;25.19;68.15;99855.03;4980302;28;1321;-65
2021/08/07 04:48:02;;;;;;;;;;;;;;;25.19;68.15;99855.88;4979835;28;1310;-65
2021/08/07 04:50:30;;;;;;;;;;;;;;;25.18;68.03;99851.50;4978173;28;1416;-68
2021/08/07 04:52:57;;;;;;;;;;;;;;;25.18;68.38;99854.19;4979367;28;1369;-67
2021/08/07 04:55:24;;;;;;;;;;;;;;;25.19;68.44;99855.88;4962443;28;1903;-65
2021/08/07 04:57:51;;;;;;;;;;;;;;;25.19;68.19;99855.03;4962236;28;1366;-64
2021/08/07 05:00:19;;;;;;;;;;;;;;;25.21;68.06;99859.22;4978800;28;1437;-64
2021/08/07 05:02:46;;;;;;;;;;;;;;;25.21;68.02;99864.53;4977819;28;1377;-64
2021/08/07 05:05:14;;;;;;;;;;;;;;;25.25;68.30;99865.09;4979715;28;1357;-65
2021/08/07 05:07:41;;;;;;;;;;;;;;;25.25;68.18;99857.94;4979438;28;1322;-63
2021/08/07 05:10:08;;;;;;;;;;;;;;;25.24;68.27;99858.91;4977972;28;1358;-65
2021/08/07 05:12:35;;;;;;;;;;;;;;;25.25;68.18;99855.25;4958482;28;1679;-63
2021/08/07 05:15:02;;;;;;;;;;;;;;;25.28;68.11;99849.63;4959535;28;1996;-61
2021/08/07 05:17:29;;;;;;;;;;;;;;;25.28;67.62;99854.97;4958236;28;1381;-64
2021/08/07 05:19:56;;;;;;;;;;;;;;;25.31;67.25;99860.00;4959613;28;1360;-63
2021/08/07 05:22:22;;;;;;;;;;;;;;;25.33;67.20;99860.66;4960208;28;1302;-64
2021/08/07 05:24:49;;;;;;;;;;;;;;;25.29;67.61;99861.94;4958738;28;1382;-68
2021/08/07 05:27:17;;;;;;;;;;;;;;;25.28;67.56;99854.13;4959004;28;1191;-66
2021/08/07 05:29:43;;;;;;;;;;;;;;;25.28;67.20;99857.63;4958236;28;1354;-66
2021/08/07 05:32:10;;;;;;;;;;;;;;;25.30;67.36;99858.31;4957885;28;1536;-64
2021/08/07 05:34:37;;;;;;;;;;;;;;;25.32;67.35;99858.97;4959306;28;2006;-65
2021/08/07 05:37:03;;;;;;;;;;;;;;;25.33;67.44;99850.00;4959821;28;1322;-68
2021/08/07 05:39:30;;;;;;;;;;;;;;;25.35;67.10;99855.22;4956818;28;1354;-68
2021/08/07 05:41:57;;;;;;;;;;;;;;;25.35;67.07;99855.22;4959124;28;1361;-64
2021/08/07 05:44:24;;;;;;;;;;;;;;;25.37;67.37;99859.41;4959412;28;1334;-65
2021/08/07 05:46:50;;;;;;;;;;;;;;;25.39;67.22;99865.41;4956207;28;1394;-68
2021/08/07 05:49:17;;;;;;;;;;;;;;;25.42;66.91;99864.25;4958913;28;1306;-66
2021/08/07 05:51:44;;;;;;;;;;;;;;;25.41;67.09;99866.06;4958204;28;1338;-66
2021/08/07 05:54:11;;;;;;;;;;;;;;;25.44;66.87;99855.09;4954750;28;1924;-63
2021/08/07 05:56:38;;;;;;;;;;;;;;;25.45;66.94;99864.78;4957367;28;1400;-64
2021/08/07 05:59:05;;;;;;;;;;;;;;;25.50;66.54;99865.19;4959720;28;1258;-63
2021/08/07 06:01:31;;;;;;;;;;;;;;;25.54;66.49;99868.41;4954986;28;1187;-64
2021/08/07 06:03:58;;;;;;;;;;;;;;;25.54;66.80;99871.91;4958584;28;1294;-64
2021/08/07 06:06:25;;;;;;;;;;;;;;;25.54;66.44;99860.41;4959282;28;1287;-64
2021/08/07 06:08:51;;;;;;;;;;;;;;;25.51;66.87;99861.56;4955296;28;1196;-65
2021/08/07 06:11:18;;;;;;;;;;;;;;;25.49;66.78;99850.22;4963961;28;1465;-62
2021/08/07 06:13:46;;;;;;;;;;;;;;;25.51;65.97;99856.22;4978202;28;1432;-63
2021/08/07 06:16:13;;;;;;;;;;;;;;;25.48;66.42;99855.66;4974162;28;1982;-63
2021/08/07 06:18:40;;;;;;;;;;;;;;;25.52;66.57;99852.56;4960559;28;1401;-63
2021/08/07 06:21:06;;;;;;;;;;;;;;;25.61;66.17;99852.63;4979566;28;1366;-61
2021/08/07 06:23:33;;;;;;;;;;;;;;;25.56;66.40;99849.59;4974978;28;1346;-62
2021/08/07 06:26:00;;;;;;;;;;;;;;;25.46;66.03;99861.16;4978170;28;1365;-64
2021/08/07 06:28:27;;;;;;;;;;;;;;;25.55;66.05;99848.75;4981568;28;1291;-64
2021/08/07 06:30:53;;;;;;;;;;;;;;;25.57;65.72;99848.59;4961762;28;1378;-64
2021/08/07 06:33:20;;;;;;;;;;;;;;;25.49;66.21;99852.03;4982051;28;1210;-64
2021/08/07 06:35:47;;;;;;;;;;;;;;;25.40;66.66;99847.59;4983304;28;1902;-63
2021/08/07 06:38:13;;;;;;;;;;;;;;;25.40;66.79;99845.75;4978752;28;1353;-64
2021/08/07 06:40:40;;;;;;;;;;;;;;;25.47;66.55;99844.16;4981768;28;1350;-63
2021/08/07 06:43:07;;;;;;;;;;;;;;;25.45;66.56;99851.47;4982713;28;1291;-63
2021/08/07 06:45:33;;;;;;;;;;;;;;;25.46;66.96;99857.63;4978617;28;1305;-64
2021/08/07 06:48:02;;;;;;;;;;;;;;;25.41;67.11;99859.94;4981407;28;1314;-65
2021/08/07 06:50:29;;;;;;;;;;;;;;;25.40;67.16;99853.75;4982427;28;1346;-64
2021/08/07 06:52:56;;;;;;;;;;;;;;;25.39;67.22;99859.22;4963880;28;1303;-64
2021/08/07 06:55:23;;;;;;;;;;;;;;;25.42;67.01;99866.91;4980928;28;1974;-63
2021/08/07 06:57:49;;;;;;;;;;;;;;;25.40;67.04;99858.25;4982506;28;1366;-66
2021/08/07 07:00:17;;;;;;;;;;;;;;;25.40;67.06;99864.41;4980769;28;1372;-64
2021/08/07 07:02:43;;;;;;;;;;;;;;;25.39;67.33;99862.72;4980860;28;1295;-64
2021/08/07 07:05:10;;;;;;;;;;;;;;;25.43;67.04;99861.47;4982046;28;1353;-63
2021/08/07 07:07:38;;;;;;;;;;;;;;;25.46;67.38;99855.81;4980782;28;1291;-62
2021/08/07 07:10:08;;;;;;;;;;;;;;;25.50;67.11;99859.88;4980614;28;1356;-65
2021/08/07 07:12:35;;;;;;;;;;;;;;;25.44;67.37;99865.78;4981819;28;1737;-64
2021/08/07 07:15:02;;;;;;;;;;;;;;;25.47;67.43;99856.66;4981805;28;1919;-64
2021/08/07 07:17:29;;;;;;;;;;;;;;;25.61;66.89;99868.66;4973767;28;1405;-61
2021/08/07 07:19:57;;;;;;;;;;;;;;;25.59;67.18;99870.63;4977225;28;1365;-63
2021/08/07 07:22:23;;;;;;;;;;;;;;;25.53;67.42;99870.22;4979104;28;1231;-64
2021/08/07 07:24:50;;;;;;;;;;;;;;;25.54;66.97;99879.91;4980967;28;1304;-62
2021/08/07 07:27:17;;;;;;;;;;;;;;;25.64;66.48;99871.84;4979785;28;1349;-63
2021/08/07 07:29:43;;;;;;;;;;;;;;;25.65;66.88;99876.19;4962601;28;1387;-65
2021/08/07 07:32:10;;;;;;;;;;;;;;;25.73;66.53;99870.09;4982019;28;1287;-64
2021/08/07 07:34:38;;;;;;;;;;;;;;;25.60;66.66;99883.81;4980161;28;1914;-64
2021/08/07 07:37:06;;;;;;;;;;;;;;;25.71;65.53;99872.94;4980170;28;1294;-66
2021/08/07 07:39:35;;;;;;;;;;;;;;;25.72;66.21;99871.06;4981324;28;1316;-67
2021/08/07 07:42:02;;;;;;;;;;;;;;;25.74;66.41;99879.78;4980555;28;1373;-66
2021/08/07 07:44:32;;;;;;;;;;;;;;;25.71;66.34;99882.75;4975574;28;1377;-63
2021/08/07 07:46:59;;;;;;;;;;;;;;;25.77;66.65;99876.81;4977634;28;1207;-64
2021/08/07 07:49:26;;;;;;;;;;;;;;;25.81;66.06;99888.81;4981012;28;1377;-62
2021/08/07 07:51:52;;;;;;;;;;;;;;;25.73;66.35;99883.44;4979317;28;1369;-62
2021/08/07 07:54:19;;;;;;;;;;;;;;;25.71;66.31;99880.09;4980662;28;1235;-63
2021/08/07 07:56:46;;;;;;;;;;;;;;;25.77;66.09;99882.97;4980817;28;1910;-63
2021/08/07 07:59:12;;;;;;;;;;;;;;;25.74;66.00;99882.44;4979469;28;1310;-63
2021/08/07 08:01:39;;;;;;;;;;;;;;;25.76;66.30;99875.13;4962929;28;1589;-64
2021/08/07 08:04:07;;;;;;;;;;;;;;;25.74;65.86;99877.97;4980950;28;1252;-64
2021/08/07 08:06:33;;;;;;;;;;;;;;;25.76;65.92;99875.13;4961242;28;1396;-64
2021/08/07 08:09:01;;;;;;;;;;;;;;;25.80;65.82;99879.16;4962554;28;1366;-63
2021/08/07 08:11:27;;;;;;;;;;;;;;;25.82;65.94;99874.50;4975729;28;1657;-61
2021/08/07 08:13:54;;;;;;;;;;;;;;;25.86;65.86;99875.88;4977245;28;1291;-62
2021/08/07 08:16:21;;;;;;;;;;;;;;;25.88;64.82;99881.91;4961450;28;1914;-61
2021/08/07 08:18:47;;;;;;;;;;;;;;;25.95;65.11;99878.47;4978882;28;1318;-63
2021/08/07 08:21:14;;;;;;;;;;;;;;;25.94;64.37;99878.63;4977741;28;1342;-63
2021/08/07 08:23:41;;;;;;;;;;;;;;;25.94;65.47;99884.78;4978426;28;1310;-63
2021/08/07 08:26:07;;;;;;;;;;;;;;;25.94;65.36;99889.28;4977735;28;1422;-63
2021/08/07 08:28:34;;;;;;;;;;;;;;;25.93;65.33;99893.78;4963661;28;1327;-65
2021/08/07 08:31:01;;;;;;;;;;;;;;;25.89;66.11;99883.59;4978714;28;1322;-63
2021/08/07 08:33:28;;;;;;;;;;;;;;;25.86;65.21;99898.06;4978856;28;1350;-62
2021/08/07 08:35:55;;;;;;;;;;;;;;;25.87;66.57;99898.91;4958250;28;1972;-64
2021/08/07 08:38:21;;;;;;;;;;;;;;;25.91;64.35;99900.25;4958240;28;1347;-64
2021/08/07 08:40:57;;;;;;;;;;;;;;;25.96;65.21;99896.13;4977476;28;1369;-65
2021/08/07 08:43:24;;;;;;;;;;;;;;;26.03;64.79;99899.03;4976126;28;1343;-63
2021/08/07 08:45:50;;;;;;;;;;;;;;;26.01;65.62;99891.19;4979527;28;1381;-65
2021/08/07 08:48:17;;;;;;;;;;;;;;;25.99;65.49;99895.03;4977216;28;1314;-65
2021/08/07 08:50:46;;;;;;;;;;;;;;;25.90;66.34;99894.09;4978171;28;1387;-67
2021/08/07 08:53:13;;;;;;;;;;;;;;;25.91;66.06;99902.94;4968821;28;1330;-66
2021/08/07 08:55:40;;;;;;;;;;;;;;;26.03;65.83;99899.03;4974845;28;1926;-66
2021/08/07 08:58:07;;;;;;;;;;;;;;;25.96;66.02;99901.47;4957910;28;1327;-66
2021/08/07 09:00:33;;;;;;;;;;;;;;;26.08;65.50;99896.75;4973399;28;1397;-64
2021/08/07 09:03:01;;;;;;;;;;;;;;;26.08;65.23;99902.91;4974697;28;1228;-65
2021/08/07 09:05:28;;;;;;;;;;;;;;;26.16;65.69;99904.00;4977659;28;1348;-64
2021/08/07 09:07:55;;;;;;;;;;;;;;;26.05;65.67;99897.06;4960928;28;1370;-65
2021/08/07 09:10:22;;;;;;;;;;;;;;;26.06;65.53;99904.06;4971356;28;1411;-63
2021/08/07 09:12:55;;;;;;;;;;;;;;;26.08;66.12;99891.41;4957725;28;1502;-63
2021/08/07 09:15:28;;;;;;;;;;;;;;;26.03;65.01;99893.69;4974677;28;1910;-63
2021/08/07 09:18:22;;;;;;;;;;;;;;;26.06;65.81;99898.72;4959680;28;1306;-66
2021/08/07 09:20:50;;;;;;;;;;;;;;;26.15;65.76;99897.81;4974288;28;1764;-63
2021/08/07 09:23:28;;;;;;;;;;;;;;;26.17;65.13;99905.69;4976623;28;1302;-65
2021/08/07 09:26:09;;;;;;;;;;;;;;;26.19;65.60;99904.53;4976642;28;1298;-62
2021/08/07 09:28:47;;;;;;;;;;;;;;;26.26;65.35;99910.94;4976143;28;1365;-63
2021/08/07 09:31:16;;;;;;;;;;;;;;;26.30;64.85;99911.44;4953710;28;1386;-66
2021/08/07 09:33:44;;;;;;;;;;;;;;;26.23;64.92;99907.75;4950732;28;1276;-64
2021/08/07 09:36:10;;;;;;;;;;;;;;;26.20;64.79;99906.22;4950840;28;1982;-65
2021/08/07 09:38:45;;;;;;;;;;;;;;;26.17;66.06;99905.69;4951637;28;832;-66
2021/08/07 09:41:13;;;;;;;;;;;;;;;26.15;65.63;99903.16;4969350;28;1375;-66
2021/08/07 09:43:39;;;;;;;;;;;;;;;26.18;64.66;99908.19;4952998;28;697;-65
2021/08/07 09:46:22;;;;;;;;;;;;;;;26.19;65.88;99899.22;4968938;28;1217;-66
2021/08/07 09:48:51;;;;;;;;;;;;;;;26.18;65.15;99896.69;4969952;28;910;-66
2021/08/07 09:51:23;;;;;;;;;;;;;;;26.19;65.59;99904.53;4970032;28;1372;-65
2021/08/07 09:54:05;;;;;;;;;;;;;;;26.19;65.21;99903.69;4952243;28;1152;-65
2021/08/07 09:56:51;;;;;;;;;;;;;;;26.15;64.68;99897.81;4969021;28;1910;-65
2021/08/07 09:59:19;;;;;;;;;;;;;;;26.19;65.22;99893.88;4969522;28;1108;-65
2021/08/07 10:01:47;;;;;;;;;;;;;;;26.20;64.95;99895.56;4968768;28;1201;-65
2021/08/07 10:04:15;;;;;;;;;;;;;;;26.22;64.58;99893.56;4969324;28;934;-66
2021/08/07 10:06:43;;;;;;;;;;;;;;;26.21;65.46;99894.53;4969106;28;1162;-66
2021/08/07 10:09:10;;;;;;;;;;;;;;;26.25;65.21;99887.91;4969229;28;981;-65
2021/08/07 10:11:37;;;;;;;;;;;;;;;26.27;64.82;99901.94;4969042;28;1574;-66
2021/08/07 10:14:04;;;;;;;;;;;;;;;26.24;65.30;99896.91;4969120;28;1027;-65
2021/08/07 10:16:32;;;;;;;;;;;;;;;26.26;65.26;99900.28;4968989;28;1930;-65
2021/08/07 10:18:59;;;;;;;;;;;;;;;26.27;66.12;99895.75;4969004;28;1097;-65
2021/08/07 10:21:26;;;;;;;;;;;;;;;26.29;66.14;99886.59;4969220;28;1328;-66
2021/08/07 10:23:54;;;;;;;;;;;;;;;26.28;65.33;99903.59;4969046;28;844;-67
2021/08/07 10:26:25;;;;;;;;;;;;;;;26.26;65.17;99902.94;4951674;28;1264;-67
2021/08/07 10:28:57;;;;;;;;;;;;;;;26.27;64.98;99899.25;4952162;28;768;-68
2021/08/07 10:31:25;;;;;;;;;;;;;;;26.30;65.30;99906.94;4969195;28;1245;-67
2021/08/07 10:33:53;;;;;;;;;;;;;;;26.31;65.40;99897.97;4969186;28;859;-68
2021/08/07 10:36:19;;;;;;;;;;;;;;;26.31;65.13;99908.63;4951551;28;1907;-67
2021/08/07 10:38:46;;;;;;;;;;;;;;;26.32;65.19;99899.66;4951707;28;1084;-68
2021/08/07 10:41:14;;;;;;;;;;;;;;;26.34;65.29;99905.66;4968994;28;1261;-68
2021/08/07 10:43:41;;;;;;;;;;;;;;;26.32;64.90;99907.66;4951609;28;788;-68
2021/08/07 10:46:09;;;;;;;;;;;;;;;26.34;65.31;99899.47;4968795;28;1249;-67
2021/08/07 10:48:41;;;;;;;;;;;;;;;26.34;64.89;99897.66;4951112;28;1186;-67
2021/08/07 10:51:22;;;;;;;;;;;;;;;26.36;65.13;99895.66;4969269;28;1336;-67
2021/08/07 10:53:49;;;;;;;;;;;;;;;26.37;64.97;99897.34;4968693;28;1037;-67
2021/08/07 10:56:24;;;;;;;;;;;;;;;26.38;64.75;99907.03;4969047;28;1910;-67
2021/08/07 10:58:51;;;;;;;;;;;;;;;26.48;65.09;99909.56;4967097;28;1717;-65
2021/08/07 11:01:21;;;;;;;;;;;;;;;26.44;65.56;99909.06;4949454;28;1776;-68
2021/08/07 11:03:49;;;;;;;;;;;;;;;26.46;65.66;99901.72;4967554;28;1207;-72
2021/08/07 11:06:17;;;;;;;;;;;;;;;26.42;64.72;99904.84;4948260;28;1282;-78
2021/08/07 11:08:44;;;;;;;;;;;;;;;26.35;65.28;99903.84;4948656;28;934;-75
2021/08/07 11:11:30;;;;;;;;;;;;;;;26.27;64.39;99907.25;4947168;29;1462;-71
2021/08/07 11:14:15;;;;;;;;;;;;;;;26.24;65.04;99912.06;4946737;28;1267;-73
2021/08/07 11:16:42;;;;;;;;;;;;;;;26.22;64.51;99906.91;4960556;28;1969;-69
2021/08/07 11:19:38;;;;;;;;;;;;;;;26.22;64.72;99909.56;4952486;28;1237;-70
2021/08/07 11:22:05;;;;;;;;;;;;;;;26.22;64.44;99906.06;4917680;28;1229;-68
2021/08/07 11:24:44;;;;;;;;;;;;;;;26.20;64.73;99906.22;4989167;28;1265;-69
2021/08/07 11:27:41;;;;;;;;;;;;;;;26.20;64.17;99898.22;4978785;28;1170;-70
2021/08/07 11:30:27;;;;;;;;;;;;;;;26.21;63.97;99896.38;4971729;28;1267;-69
2021/08/07 11:33:00;;;;;;;;;;;;;;;26.21;63.84;99902.53;4972224;28;1206;-71
2021/08/07 11:35:30;;;;;;;;;;;;;;;26.20;63.78;99908.91;4972537;28;1914;-73
2021/08/07 11:38:06;;;;;;;;;;;;;;;26.20;64.18;99902.72;4972288;28;1214;-73
2021/08/07 11:40:37;;;;;;;;;;;;;;;26.21;63.55;99899.88;4972013;28;1288;-72
2021/08/07 11:43:04;;;;;;;;;;;;;;;26.19;63.37;99895.69;4955075;28;1152;-72
2021/08/07 11:45:31;;;;;;;;;;;;;;;26.20;63.25;99900.88;4971983;28;1258;-69
2021/08/07 11:47:58;;;;;;;;;;;;;;;26.19;63.48;99898.34;4971990;28;1147;-70
2021/08/07 11:50:25;;;;;;;;;;;;;;;26.18;63.24;99907.34;4971879;28;1304;-71
2021/08/07 11:52:51;;;;;;;;;;;;;;;26.19;63.15;99906.38;4971701;28;1210;-69
2021/08/07 11:55:19;;;;;;;;;;;;;;;26.18;63.43;99902.00;4971914;28;1272;-70
2021/08/07 11:57:48;;;;;;;;;;;;;;;26.18;63.30;99897.50;4971841;28;1907;-71
2021/08/07 12:00:22;;;;;;;;;;;;;;;26.18;62.86;99900.19;4956407;28;1308;-71
2021/08/07 12:02:59;;;;;;;;;;;;;;;26.16;62.85;99894.19;4938026;28;1195;-72
2021/08/07 12:05:26;;;;;;;;;;;;;;;26.16;62.78;99898.66;4954169;28;1273;-70
2021/08/07 12:08:00;;;;;;;;;;;;;;;26.15;62.73;99896.94;4953752;28;1156;-71
2021/08/07 12:10:27;;;;;;;;;;;;;;;26.13;62.44;99894.44;4953997;28;1265;-71
2021/08/07 12:12:54;;;;;;;;;;;;;;;26.13;62.68;99883.78;4941834;29;1311;-72
2021/08/07 12:15:21;;;;;;;;;;;;;;;26.11;62.44;99891.13;4934612;29;1552;-71
2021/08/07 12:17:48;;;;;;;;;;;;;;;26.14;62.50;99889.97;4939130;29;1898;-69
2021/08/07 12:20:15;;;;;;;;;;;;;;;26.16;62.39;99883.50;4933897;28;1253;-71
2021/08/07 12:23:03;;;;;;;;;;;;;;;26.16;62.68;99886.16;4939422;28;1108;-70
2021/08/07 12:25:35;;;;;;;;;;;;;;;26.18;62.74;99880.66;4920456;29;1372;-68
2021/08/07 12:28:09;;;;;;;;;;;;;;;26.21;62.94;99894.53;4924548;29;1216;-69
2021/08/07 12:30:49;;;;;;;;;;;;;;;26.19;62.72;99895.69;4921704;29;1411;-69
2021/08/07 12:33:16;;;;;;;;;;;;;;;26.18;62.60;99892.19;4921055;29;1263;-71
2021/08/07 12:35:42;;;;;;;;;;;;;;;26.18;62.78;99894.84;4921828;29;1962;-67
2021/08/07 12:38:17;;;;;;;;;;;;;;;26.18;62.83;99891.34;4920832;29;1227;-67
2021/08/07 12:40:44;;;;;;;;;;;;;;;26.14;62.95;99885.47;4919496;29;1303;-69
2021/08/07 12:43:11;;;;;;;;;;;;;;;26.21;62.89;99897.22;4922184;29;1295;-69
2021/08/07 12:45:38;;;;;;;;;;;;;;;26.25;62.93;99892.41;4928202;29;1844;-69
2021/08/07 12:48:05;;;;;;;;;;;;;;;26.25;63.60;99887.06;4927092;29;1290;-62
2021/08/07 12:50:33;;;;;;;;;;;;;;;26.28;63.92;99887.59;4920731;29;1262;-65
2021/08/07 12:53:01;;;;;;;;;;;;;;;26.28;63.17;99890.25;4923685;29;1231;-64
2021/08/07 12:55:28;;;;;;;;;;;;;;;26.28;63.06;99894.75;4920159;29;1301;-64
2021/08/07 12:58:14;;;;;;;;;;;;;;;26.29;63.33;99889.28;4920270;29;1914;-67
2021/08/07 13:00:40;;;;;;;;;;;;;;;26.29;63.68;99899.13;4935177;28;1460;-67
2021/08/07 13:03:08;;;;;;;;;;;;;;;26.28;64.17;99898.28;4918717;29;1358;-67